Terminal Aerodrome Forecast
Issued by NWS Grand Forks, ND

Home | Current Version | Previous Version | Text Only | Print | Product List | Glossary On
Versions: 1 2 3 4 5 6 7 8 9 10 11 12 13 14 15 16 17 18 19 20
000
FTUS43 KFGF 231200 AAA
TAFGFK
TAF AMD
KGFK 231247Z 2313/2412 01011KT 5SM BR OVC004
      TEMPO 2313/2317 P6SM NSW OVC015
     FM231700 04014KT P6SM -RA OVC015
     FM232000 04014KT P6SM OVC015=

USA.gov is the U.S. government's official web portal to all federal, state and local government web resources and services.